CCA111 ZBAA-VHHH
Flight info
| Callsign | CCA111 |
|---|---|
| Flight time | N/A |
| Altitude | 38100 |
| Route | ZBAA/18L K0902S1250 RUSD6J RUSDO W45 IPLEV B458 DADGA/K0909S1220 W37 GUSIV/K0911S1250 W37 PEXID/K0913S1220 W37 OMBEB/K0906S1250 R473 NNX/K0907S1220 R473 WYN W18 NLG W23 ZUH R473 SIERA SIER7A VHHH/07C |
| Aircraft | B77W/H-SDE2E3FGHIJ3J4J5M1RWXY/LB1D1 |
Departure
| Time | 2026-05-04 03:11 |
|---|---|
| Airport | Beijing Capital International Airport (ZBAA) |
Arrival
| Time | N/A |
|---|---|
| Airport | Hong Kong International Airport (VHHH) |
| Time | Latitude | Longitude | Altitude | Speed | Heading |
|---|---|---|---|---|---|
| 2026-05-04 02:51 | 40.06579 | 116.60586 | 129 ft | 0 kts | 83° |
| 2026-05-04 03:00 | 40.06579 | 116.60585 | 150 ft | 1 kts | 83° |
| 2026-05-04 03:00 | 40.06576 | 116.60553 | 123 ft | 4 kts | 83° |
| 2026-05-04 03:00 | 40.06574 | 116.60523 | 123 ft | 3 kts | 82° |
| 2026-05-04 03:00 | 40.06567 | 116.60491 | 123 ft | 4 kts | 50° |
| 2026-05-04 03:01 | 40.06546 | 116.60474 | 123 ft | 4 kts | 2° |
| 2026-05-04 03:01 | 40.06520 | 116.60478 | 123 ft | 4 kts | 350° |
| 2026-05-04 03:01 | 40.06511 | 116.60480 | 124 ft | 0 kts | 353° |
| 2026-05-04 03:02 | 40.06513 | 116.60479 | 124 ft | 1 kts | 353° |
| 2026-05-04 03:03 | 40.06532 | 116.60476 | 123 ft | 7 kts | 353° |
| 2026-05-04 03:03 | 40.06629 | 116.60461 | 126 ft | 18 kts | 353° |
| 2026-05-04 03:03 | 40.06751 | 116.60439 | 125 ft | 18 kts | 343° |
| 2026-05-04 03:03 | 40.06787 | 116.60326 | 126 ft | 14 kts | 265° |
| 2026-05-04 03:04 | 40.06776 | 116.60196 | 126 ft | 14 kts | 264° |
| 2026-05-04 03:04 | 40.06794 | 116.60074 | 124 ft | 14 kts | 319° |
| 2026-05-04 03:04 | 40.06890 | 116.60040 | 126 ft | 14 kts | 352° |
| 2026-05-04 03:04 | 40.06990 | 116.60024 | 126 ft | 14 kts | 353° |
| 2026-05-04 03:05 | 40.07090 | 116.60009 | 126 ft | 14 kts | 353° |
| 2026-05-04 03:05 | 40.07194 | 116.59993 | 126 ft | 15 kts | 352° |
| 2026-05-04 03:05 | 40.07301 | 116.59976 | 125 ft | 15 kts | 353° |
| 2026-05-04 03:05 | 40.07407 | 116.59959 | 126 ft | 15 kts | 353° |
| 2026-05-04 03:06 | 40.07514 | 116.59942 | 126 ft | 15 kts | 353° |
| 2026-05-04 03:06 | 40.07620 | 116.59926 | 126 ft | 15 kts | 353° |
| 2026-05-04 03:06 | 40.07727 | 116.59909 | 126 ft | 15 kts | 353° |
| 2026-05-04 03:06 | 40.07833 | 116.59892 | 128 ft | 15 kts | 353° |
| 2026-05-04 03:07 | 40.07939 | 116.59876 | 127 ft | 15 kts | 353° |
| 2026-05-04 03:07 | 40.08045 | 116.59859 | 126 ft | 15 kts | 353° |
| 2026-05-04 03:07 | 40.08152 | 116.59842 | 127 ft | 15 kts | 353° |
| 2026-05-04 03:07 | 40.08257 | 116.59826 | 126 ft | 15 kts | 353° |
| 2026-05-04 03:08 | 40.08364 | 116.59809 | 125 ft | 15 kts | 353° |
| 2026-05-04 03:08 | 40.08470 | 116.59792 | 125 ft | 15 kts | 353° |
| 2026-05-04 03:08 | 40.08577 | 116.59775 | 126 ft | 15 kts | 353° |
| 2026-05-04 03:08 | 40.08683 | 116.59759 | 125 ft | 15 kts | 353° |
| 2026-05-04 03:09 | 40.08789 | 116.59742 | 126 ft | 15 kts | 353° |
| 2026-05-04 03:09 | 40.08896 | 116.59726 | 125 ft | 15 kts | 353° |
| 2026-05-04 03:09 | 40.08980 | 116.59658 | 129 ft | 14 kts | 285° |
| 2026-05-04 03:09 | 40.08979 | 116.59640 | 128 ft | 1 kts | 264° |
| 2026-05-04 03:10 | 40.08976 | 116.59609 | 129 ft | 8 kts | 259° |
| 2026-05-04 03:10 | 40.08926 | 116.59517 | 129 ft | 14 kts | 220° |
| 2026-05-04 03:10 | 40.08831 | 116.59501 | 126 ft | 15 kts | 173° |
| 2026-05-04 03:10 | 40.08461 | 116.59559 | 126 ft | 111 kts | 173° |
| 2026-05-04 03:11 | 40.07321 | 116.59713 | 424 ft | 199 kts | 174° |
| 2026-05-04 03:11 | 40.05944 | 116.59941 | 2067 ft | 202 kts | 175° |
| 2026-05-04 03:11 | 40.04500 | 116.60203 | 3011 ft | 222 kts | 176° |
| 2026-05-04 03:11 | 40.02865 | 116.60441 | 3580 ft | 245 kts | 176° |
| 2026-05-04 03:12 | 40.01162 | 116.60700 | 4531 ft | 254 kts | 176° |
| 2026-05-04 03:12 | 39.99365 | 116.60969 | 5450 ft | 266 kts | 175° |
| 2026-05-04 03:12 | 39.97498 | 116.61318 | 6282 ft | 276 kts | 174° |
| 2026-05-04 03:12 | 39.95561 | 116.61628 | 7197 ft | 284 kts | 175° |
| 2026-05-04 03:13 | 39.93583 | 116.61903 | 8212 ft | 288 kts | 175° |
| 2026-05-04 03:13 | 39.91567 | 116.62196 | 9212 ft | 295 kts | 175° |
| 2026-05-04 03:13 | 39.89508 | 116.62507 | 10159 ft | 302 kts | 174° |
| 2026-05-04 03:13 | 39.87368 | 116.62840 | 10807 ft | 321 kts | 174° |
| 2026-05-04 03:14 | 39.85039 | 116.63205 | 11060 ft | 353 kts | 174° |
| 2026-05-04 03:14 | 39.82493 | 116.63600 | 11315 ft | 383 kts | 174° |
| 2026-05-04 03:14 | 39.79825 | 116.64011 | 12013 ft | 397 kts | 174° |
| 2026-05-04 03:14 | 39.77057 | 116.64439 | 13005 ft | 403 kts | 174° |
| 2026-05-04 03:15 | 39.74252 | 116.64852 | 13987 ft | 406 kts | 176° |
| 2026-05-04 03:15 | 39.71431 | 116.64560 | 14687 ft | 412 kts | 198° |
| 2026-05-04 03:15 | 39.68856 | 116.62962 | 15586 ft | 413 kts | 218° |
| 2026-05-04 03:15 | 39.66817 | 116.60365 | 16531 ft | 412 kts | 237° |
| 2026-05-04 03:16 | 39.65459 | 116.57112 | 17491 ft | 411 kts | 253° |
| 2026-05-04 03:16 | 39.64895 | 116.53515 | 18353 ft | 405 kts | 268° |
| 2026-05-04 03:16 | 39.64688 | 116.49881 | 18996 ft | 413 kts | 269° |
| 2026-05-04 03:16 | 39.64497 | 116.46130 | 19730 ft | 420 kts | 269° |
| 2026-05-04 03:17 | 39.64293 | 116.42333 | 20525 ft | 424 kts | 269° |
| 2026-05-04 03:17 | 39.64070 | 116.38496 | 21319 ft | 429 kts | 268° |
| 2026-05-04 03:17 | 39.63829 | 116.34613 | 22076 ft | 434 kts | 268° |
| 2026-05-04 03:17 | 39.63574 | 116.30685 | 22801 ft | 440 kts | 268° |
| 2026-05-04 03:18 | 39.63311 | 116.26708 | 23511 ft | 445 kts | 267° |
| 2026-05-04 03:18 | 39.63043 | 116.22690 | 24159 ft | 448 kts | 267° |
| 2026-05-04 03:18 | 39.62773 | 116.18656 | 24861 ft | 450 kts | 267° |
| 2026-05-04 03:18 | 39.62505 | 116.14661 | 25514 ft | 452 kts | 267° |
| 2026-05-04 03:19 | 39.62231 | 116.10594 | 26120 ft | 455 kts | 267° |
| 2026-05-04 03:19 | 39.61953 | 116.06486 | 26696 ft | 459 kts | 267° |
| 2026-05-04 03:19 | 39.61672 | 116.02348 | 27269 ft | 462 kts | 267° |
| 2026-05-04 03:19 | 39.61398 | 115.98331 | 27810 ft | 465 kts | 267° |
| 2026-05-04 03:20 | 39.61111 | 115.94141 | 28341 ft | 468 kts | 267° |
| 2026-05-04 03:20 | 39.60820 | 115.89918 | 28819 ft | 471 kts | 268° |
| 2026-05-04 03:20 | 39.60581 | 115.85700 | 29395 ft | 466 kts | 272° |
| 2026-05-04 03:20 | 39.60985 | 115.81594 | 29678 ft | 467 kts | 288° |
| 2026-05-04 03:21 | 39.62265 | 115.77750 | 30027 ft | 462 kts | 301° |
| 2026-05-04 03:21 | 39.63898 | 115.74139 | 30342 ft | 465 kts | 301° |
| 2026-05-04 03:21 | 39.65478 | 115.70491 | 30851 ft | 463 kts | 300° |
| 2026-05-04 03:21 | 39.67002 | 115.66827 | 31396 ft | 461 kts | 300° |
| 2026-05-04 03:22 | 39.68509 | 115.63153 | 31817 ft | 461 kts | 300° |
| 2026-05-04 03:22 | 39.70021 | 115.59482 | 32265 ft | 460 kts | 300° |
| 2026-05-04 03:22 | 39.71533 | 115.55830 | 32797 ft | 457 kts | 300° |
| 2026-05-04 03:22 | 39.73011 | 115.52258 | 33406 ft | 453 kts | 300° |
| 2026-05-04 03:23 | 39.74217 | 115.48493 | 33752 ft | 457 kts | 286° |
| 2026-05-04 03:23 | 39.74547 | 115.44359 | 34076 ft | 465 kts | 271° |
| 2026-05-04 03:23 | 39.74130 | 115.40189 | 34528 ft | 468 kts | 260° |
| 2026-05-04 03:23 | 39.72975 | 115.36213 | 34855 ft | 473 kts | 247° |
| 2026-05-04 03:24 | 39.71448 | 115.32415 | 35127 ft | 475 kts | 246° |
| 2026-05-04 03:24 | 39.69875 | 115.28625 | 35382 ft | 477 kts | 246° |
| 2026-05-04 03:24 | 39.68322 | 115.24892 | 35759 ft | 475 kts | 246° |
| 2026-05-04 03:24 | 39.66773 | 115.21130 | 36173 ft | 472 kts | 246° |
| 2026-05-04 03:25 | 39.65243 | 115.17360 | 36499 ft | 472 kts | 246° |
| 2026-05-04 03:25 | 39.63725 | 115.13582 | 36820 ft | 472 kts | 246° |
| 2026-05-04 03:25 | 39.62220 | 115.09813 | 37129 ft | 471 kts | 247° |
| 2026-05-04 03:25 | 39.60715 | 115.06039 | 37437 ft | 471 kts | 247° |
| 2026-05-04 03:26 | 39.59214 | 115.02278 | 37844 ft | 468 kts | 246° |
| 2026-05-04 03:26 | 39.57764 | 114.98654 | 38126 ft | 468 kts | 246° |
| 2026-05-04 03:26 | 39.56256 | 114.94883 | 38082 ft | 474 kts | 246° |
| 2026-05-04 03:27 | 39.53232 | 114.87347 | 38081 ft | 473 kts | 246° |
| 2026-05-04 03:27 | 39.50209 | 114.79845 | 38085 ft | 467 kts | 246° |
| 2026-05-04 03:28 | 39.47207 | 114.72404 | 38076 ft | 465 kts | 246° |
| 2026-05-04 03:28 | 39.44198 | 114.64962 | 38099 ft | 472 kts | 246° |
| 2026-05-04 03:29 | 39.41121 | 114.57365 | 38105 ft | 481 kts | 246° |
| 2026-05-04 03:29 | 39.38009 | 114.49716 | 38096 ft | 486 kts | 246° |
| 2026-05-04 03:30 | 39.34694 | 114.42071 | 38078 ft | 493 kts | 236° |
| 2026-05-04 03:30 | 39.32223 | 114.38956 | 38107 ft | 503 kts | 219° |
| 2026-05-04 03:30 | 39.29114 | 114.36796 | 38089 ft | 514 kts | 203° |
| 2026-05-04 03:30 | 39.25617 | 114.35680 | 38103 ft | 523 kts | 189° |
| 2026-05-04 03:31 | 39.21957 | 114.35703 | 38096 ft | 532 kts | 173° |
| 2026-05-04 03:31 | 39.14706 | 114.37868 | 38104 ft | 537 kts | 169° |
| 2026-05-04 03:32 | 39.07465 | 114.39814 | 38103 ft | 532 kts | 171° |
| 2026-05-04 03:32 | 39.00269 | 114.41614 | 38101 ft | 524 kts | 171° |
| 2026-05-04 03:33 | 38.93125 | 114.43418 | 38109 ft | 524 kts | 171° |
| 2026-05-04 03:33 | 38.85972 | 114.45231 | 38114 ft | 524 kts | 172° |
| 2026-05-04 03:34 | 38.78863 | 114.47027 | 38122 ft | 524 kts | 172° |
| 2026-05-04 03:34 | 38.71699 | 114.48843 | 38120 ft | 525 kts | 172° |
| 2026-05-04 03:35 | 38.64536 | 114.50662 | 38115 ft | 526 kts | 172° |
| 2026-05-04 03:35 | 38.57357 | 114.52480 | 38123 ft | 526 kts | 172° |
| 2026-05-04 03:36 | 38.50217 | 114.54299 | 38122 ft | 527 kts | 172° |
| 2026-05-04 03:36 | 38.43020 | 114.56108 | 38122 ft | 527 kts | 172° |
| 2026-05-04 03:37 | 38.35799 | 114.57738 | 38120 ft | 527 kts | 173° |
| 2026-05-04 03:37 | 38.28570 | 114.59313 | 38121 ft | 527 kts | 173° |
| 2026-05-04 03:38 | 38.22567 | 114.60639 | 38109 ft | 527 kts | 173° |
| 2026-05-04 03:38 | 38.14169 | 114.62514 | 38123 ft | 527 kts | 173° |
| 2026-05-04 03:39 | 38.06939 | 114.64128 | 38121 ft | 528 kts | 173° |
| 2026-05-04 03:39 | 37.99716 | 114.65736 | 38117 ft | 527 kts | 173° |
| 2026-05-04 03:40 | 37.93711 | 114.67069 | 38129 ft | 527 kts | 173° |
| 2026-05-04 03:40 | 37.85303 | 114.68931 | 38134 ft | 527 kts | 173° |
| 2026-05-04 03:41 | 37.78072 | 114.70531 | 38102 ft | 527 kts | 173° |
| 2026-05-04 03:41 | 37.70846 | 114.72125 | 38126 ft | 527 kts | 173° |
| 2026-05-04 03:42 | 37.64847 | 114.73447 | 38133 ft | 527 kts | 173° |
| 2026-05-04 03:42 | 37.57628 | 114.75034 | 38133 ft | 527 kts | 173° |
| 2026-05-04 03:43 | 37.50404 | 114.76620 | 38128 ft | 526 kts | 173° |
| 2026-05-04 03:43 | 37.42019 | 114.78447 | 38135 ft | 526 kts | 173° |
| 2026-05-04 03:44 | 37.36026 | 114.79747 | 38140 ft | 526 kts | 173° |
| 2026-05-04 03:44 | 37.27596 | 114.81577 | 38137 ft | 526 kts | 173° |
| 2026-05-04 03:45 | 37.21609 | 114.82942 | 38143 ft | 526 kts | 173° |
| 2026-05-04 03:45 | 37.14416 | 114.84636 | 38144 ft | 526 kts | 173° |
| 2026-05-04 03:46 | 37.07271 | 114.86312 | 38127 ft | 526 kts | 173° |
| 2026-05-04 03:46 | 37.00088 | 114.87980 | 38149 ft | 525 kts | 173° |
| 2026-05-04 03:47 | 36.92906 | 114.89639 | 38151 ft | 525 kts | 173° |
| 2026-05-04 03:47 | 36.85716 | 114.91297 | 38132 ft | 525 kts | 173° |
| 2026-05-04 03:48 | 36.78579 | 114.92942 | 38148 ft | 525 kts | 173° |
| 2026-05-04 03:48 | 36.71400 | 114.94593 | 38161 ft | 524 kts | 173° |
| 2026-05-04 03:49 | 36.64223 | 114.96241 | 38166 ft | 524 kts | 173° |
| 2026-05-04 03:49 | 36.57050 | 114.97883 | 38159 ft | 524 kts | 173° |
| 2026-05-04 03:50 | 36.49894 | 114.99520 | 38162 ft | 523 kts | 173° |
| 2026-05-04 03:50 | 36.42782 | 115.01144 | 38163 ft | 523 kts | 173° |
| 2026-05-04 03:51 | 36.35610 | 115.02395 | 38156 ft | 517 kts | 181° |
| 2026-05-04 03:51 | 36.28472 | 115.02182 | 38170 ft | 511 kts | 189° |
| 2026-05-04 03:52 | 36.21395 | 115.01385 | 38166 ft | 510 kts | 189° |
| 2026-05-04 03:52 | 36.14364 | 115.00608 | 38159 ft | 511 kts | 189° |
| 2026-05-04 03:53 | 36.07290 | 114.99870 | 38167 ft | 511 kts | 189° |
| 2026-05-04 03:53 | 36.00203 | 114.99150 | 38166 ft | 511 kts | 188° |
| 2026-05-04 03:54 | 35.93121 | 114.98434 | 38141 ft | 511 kts | 188° |
| 2026-05-04 03:54 | 35.86086 | 114.97722 | 38152 ft | 510 kts | 189° |
| 2026-05-04 03:55 | 35.79007 | 114.97004 | 38162 ft | 510 kts | 189° |
| 2026-05-04 03:55 | 35.71929 | 114.96288 | 38138 ft | 510 kts | 188° |
| 2026-05-04 03:56 | 35.64861 | 114.95574 | 38160 ft | 509 kts | 188° |
| 2026-05-04 03:56 | 35.57812 | 114.94864 | 38161 ft | 508 kts | 188° |
| 2026-05-04 03:57 | 35.50808 | 114.94159 | 38161 ft | 508 kts | 188° |
| 2026-05-04 03:57 | 35.43762 | 114.93451 | 38152 ft | 508 kts | 189° |
| 2026-05-04 03:58 | 35.33196 | 114.92391 | 38160 ft | 508 kts | 188° |
| 2026-05-04 03:58 | 35.26195 | 114.91691 | 38145 ft | 508 kts | 189° |
| 2026-05-04 03:59 | 35.19154 | 114.90988 | 38159 ft | 508 kts | 189° |
| 2026-05-04 03:59 | 35.12100 | 114.90285 | 38159 ft | 509 kts | 189° |
| 2026-05-04 04:00 | 35.05039 | 114.89582 | 38160 ft | 509 kts | 189° |
| 2026-05-04 04:00 | 34.98035 | 114.88887 | 38147 ft | 509 kts | 189° |
| 2026-05-04 04:01 | 34.90977 | 114.88187 | 38154 ft | 509 kts | 189° |
| 2026-05-04 04:01 | 34.83917 | 114.87488 | 38149 ft | 509 kts | 189° |
| 2026-05-04 04:02 | 34.76860 | 114.86791 | 38141 ft | 508 kts | 189° |
| 2026-05-04 04:02 | 34.69819 | 114.86097 | 38143 ft | 508 kts | 189° |
| 2026-05-04 04:03 | 34.62823 | 114.85408 | 38157 ft | 508 kts | 189° |
| 2026-05-04 04:03 | 34.55785 | 114.84716 | 38154 ft | 506 kts | 189° |
| 2026-05-04 04:04 | 34.48767 | 114.84027 | 38150 ft | 505 kts | 189° |
| 2026-05-04 04:04 | 34.41764 | 114.83341 | 38153 ft | 504 kts | 189° |
| 2026-05-04 04:05 | 34.34820 | 114.82662 | 38133 ft | 503 kts | 189° |
| 2026-05-04 04:05 | 34.27852 | 114.81981 | 38148 ft | 502 kts | 189° |
| 2026-05-04 04:06 | 34.20888 | 114.81302 | 38152 ft | 502 kts | 189° |
| 2026-05-04 04:06 | 34.13929 | 114.80626 | 38152 ft | 501 kts | 189° |
| 2026-05-04 04:07 | 34.07024 | 114.79962 | 38147 ft | 501 kts | 190° |
| 2026-05-04 04:07 | 34.00082 | 114.79296 | 38151 ft | 500 kts | 190° |
| 2026-05-04 04:08 | 33.93152 | 114.78631 | 38152 ft | 500 kts | 190° |
| 2026-05-04 04:08 | 33.86215 | 114.77966 | 38152 ft | 500 kts | 190° |
| 2026-05-04 04:09 | 33.79289 | 114.77288 | 38154 ft | 500 kts | 190° |
| 2026-05-04 04:09 | 33.72401 | 114.76592 | 38155 ft | 500 kts | 190° |
| 2026-05-04 04:10 | 33.65459 | 114.75926 | 38136 ft | 500 kts | 190° |
| 2026-05-04 04:10 | 33.58519 | 114.75296 | 38152 ft | 500 kts | 190° |
| 2026-05-04 04:11 | 33.51598 | 114.74581 | 38154 ft | 499 kts | 191° |
| 2026-05-04 04:11 | 33.44726 | 114.73872 | 38154 ft | 499 kts | 190° |
| 2026-05-04 04:12 | 33.37807 | 114.73210 | 38150 ft | 498 kts | 191° |
| 2026-05-04 04:12 | 33.30905 | 114.72551 | 38159 ft | 498 kts | 191° |
| 2026-05-04 04:13 | 33.24000 | 114.71885 | 38153 ft | 498 kts | 191° |
| 2026-05-04 04:13 | 33.17146 | 114.71221 | 38138 ft | 497 kts | 191° |
| 2026-05-04 04:14 | 33.10259 | 114.70539 | 38154 ft | 496 kts | 191° |
| 2026-05-04 04:14 | 33.03378 | 114.69858 | 38159 ft | 496 kts | 191° |
| 2026-05-04 04:15 | 32.96508 | 114.69181 | 38163 ft | 496 kts | 191° |
| 2026-05-04 04:15 | 32.89644 | 114.68507 | 38160 ft | 495 kts | 192° |
| 2026-05-04 04:16 | 32.82821 | 114.67849 | 38162 ft | 495 kts | 192° |
| 2026-05-04 04:16 | 32.75949 | 114.67204 | 38151 ft | 495 kts | 192° |
| 2026-05-04 04:17 | 32.69075 | 114.66559 | 38140 ft | 495 kts | 192° |
| 2026-05-04 04:17 | 32.62206 | 114.65912 | 38155 ft | 495 kts | 192° |
| 2026-05-04 04:18 | 32.55383 | 114.65270 | 38161 ft | 495 kts | 192° |
| 2026-05-04 04:18 | 32.48521 | 114.64625 | 38158 ft | 495 kts | 192° |
| 2026-05-04 04:19 | 32.41659 | 114.63982 | 38160 ft | 494 kts | 193° |
| 2026-05-04 04:19 | 32.34816 | 114.63335 | 38158 ft | 493 kts | 193° |
| 2026-05-04 04:20 | 32.28037 | 114.62674 | 38163 ft | 492 kts | 193° |
| 2026-05-04 04:20 | 32.21222 | 114.62006 | 38125 ft | 491 kts | 193° |
| 2026-05-04 04:21 | 32.14432 | 114.61346 | 38149 ft | 489 kts | 193° |
| 2026-05-04 04:21 | 32.07657 | 114.60689 | 38173 ft | 488 kts | 193° |
| 2026-05-04 04:22 | 32.00900 | 114.60034 | 38174 ft | 487 kts | 193° |
| 2026-05-04 04:22 | 31.94198 | 114.59387 | 38158 ft | 486 kts | 194° |
| 2026-05-04 04:23 | 31.87470 | 114.58737 | 38177 ft | 484 kts | 194° |
| 2026-05-04 04:23 | 31.80759 | 114.58087 | 38195 ft | 483 kts | 194° |
| 2026-05-04 04:24 | 31.74054 | 114.57443 | 38187 ft | 483 kts | 194° |
| 2026-05-04 04:24 | 31.67401 | 114.56803 | 38176 ft | 482 kts | 194° |
| 2026-05-04 04:25 | 31.60722 | 114.56162 | 38188 ft | 482 kts | 194° |
| 2026-05-04 04:25 | 31.54073 | 114.55506 | 38223 ft | 478 kts | 194° |
| 2026-05-04 04:26 | 31.47422 | 114.54896 | 38201 ft | 480 kts | 194° |
| 2026-05-04 04:26 | 31.40799 | 114.54264 | 38202 ft | 481 kts | 194° |
| 2026-05-04 04:27 | 31.34115 | 114.53622 | 38197 ft | 482 kts | 194° |
| 2026-05-04 04:27 | 31.27434 | 114.52916 | 38193 ft | 478 kts | 198° |
| 2026-05-04 04:28 | 31.21113 | 114.51002 | 38196 ft | 463 kts | 209° |
| 2026-05-04 04:28 | 31.15314 | 114.47948 | 38198 ft | 456 kts | 214° |
| 2026-05-04 04:29 | 31.09654 | 114.44681 | 38197 ft | 457 kts | 214° |
| 2026-05-04 04:29 | 31.03924 | 114.41424 | 38207 ft | 458 kts | 214° |
| 2026-05-04 04:30 | 30.98177 | 114.38190 | 38189 ft | 459 kts | 214° |
| 2026-05-04 04:30 | 30.92425 | 114.34959 | 38198 ft | 460 kts | 214° |
| 2026-05-04 04:31 | 30.86578 | 114.31868 | 38203 ft | 462 kts | 213° |
| 2026-05-04 04:31 | 30.80740 | 114.28839 | 38201 ft | 462 kts | 213° |
| 2026-05-04 04:32 | 30.74922 | 114.25696 | 38202 ft | 460 kts | 214° |
| 2026-05-04 04:32 | 30.69133 | 114.22526 | 38207 ft | 459 kts | 214° |
| 2026-05-04 04:33 | 30.63347 | 114.19379 | 38203 ft | 459 kts | 214° |
| 2026-05-04 04:33 | 30.57606 | 114.16270 | 38203 ft | 458 kts | 214° |
| 2026-05-04 04:34 | 30.51827 | 114.13144 | 38174 ft | 457 kts | 214° |
| 2026-05-04 04:34 | 30.46063 | 114.10032 | 38192 ft | 457 kts | 214° |
| 2026-05-04 04:35 | 30.40306 | 114.06927 | 38201 ft | 456 kts | 214° |
| 2026-05-04 04:35 | 30.34593 | 114.03847 | 38201 ft | 457 kts | 214° |
| 2026-05-04 04:36 | 30.28834 | 114.00747 | 38164 ft | 456 kts | 214° |
| 2026-05-04 04:36 | 30.23172 | 113.97705 | 38184 ft | 456 kts | 214° |
| 2026-05-04 04:37 | 30.11653 | 113.91543 | 38203 ft | 456 kts | 214° |
| 2026-05-04 04:38 | 30.05926 | 113.88484 | 38172 ft | 456 kts | 214° |
| 2026-05-04 04:38 | 30.00164 | 113.85409 | 38193 ft | 456 kts | 214° |
| 2026-05-04 04:39 | 29.94411 | 113.82343 | 38199 ft | 457 kts | 214° |
| 2026-05-04 04:39 | 29.88432 | 113.79669 | 38209 ft | 469 kts | 205° |
| 2026-05-04 04:40 | 29.82017 | 113.78103 | 38147 ft | 482 kts | 198° |
| 2026-05-04 04:40 | 29.75261 | 113.77530 | 38194 ft | 489 kts | 194° |
| 2026-05-04 04:41 | 29.68460 | 113.77134 | 38209 ft | 489 kts | 194° |
| 2026-05-04 04:41 | 29.61658 | 113.76701 | 38211 ft | 489 kts | 194° |
| 2026-05-04 04:42 | 29.54869 | 113.76233 | 38178 ft | 489 kts | 194° |
| 2026-05-04 04:42 | 29.48128 | 113.75761 | 38209 ft | 489 kts | 194° |
| 2026-05-04 04:43 | 29.41339 | 113.75289 | 38220 ft | 489 kts | 194° |
| 2026-05-04 04:43 | 29.34541 | 113.74817 | 38213 ft | 490 kts | 194° |
| 2026-05-04 04:44 | 29.27740 | 113.74346 | 38206 ft | 489 kts | 194° |
| 2026-05-04 04:44 | 29.20961 | 113.74060 | 38208 ft | 496 kts | 190° |
| 2026-05-04 04:45 | 29.14059 | 113.74277 | 38214 ft | 497 kts | 189° |
| 2026-05-04 04:47 | 28.89919 | 113.75035 | 38230 ft | 496 kts | 189° |
| 2026-05-04 04:47 | 28.83012 | 113.75231 | 38224 ft | 496 kts | 189° |
| 2026-05-04 04:48 | 28.76109 | 113.75432 | 38175 ft | 496 kts | 190° |
| 2026-05-04 04:49 | 28.62622 | 113.74707 | 38231 ft | 485 kts | 195° |
| 2026-05-04 04:49 | 28.59252 | 113.74440 | 38223 ft | 486 kts | 195° |
| 2026-05-04 04:49 | 28.52498 | 113.73931 | 38228 ft | 487 kts | 194° |
| 2026-05-04 04:50 | 28.45734 | 113.73439 | 38234 ft | 487 kts | 195° |
| 2026-05-04 04:50 | 28.38960 | 113.72943 | 38205 ft | 488 kts | 194° |
| 2026-05-04 04:51 | 28.32226 | 113.72455 | 38212 ft | 488 kts | 194° |
| 2026-05-04 04:51 | 28.25445 | 113.71961 | 38220 ft | 488 kts | 194° |
| 2026-05-04 04:52 | 28.18667 | 113.71471 | 38218 ft | 488 kts | 194° |
| 2026-05-04 04:52 | 28.11894 | 113.70969 | 38216 ft | 487 kts | 195° |
| 2026-05-04 04:53 | 28.05187 | 113.70379 | 38214 ft | 487 kts | 195° |
| 2026-05-04 04:53 | 27.98441 | 113.69767 | 38209 ft | 487 kts | 195° |
| 2026-05-04 04:54 | 27.91694 | 113.69164 | 38210 ft | 486 kts | 195° |
| 2026-05-04 04:54 | 27.84950 | 113.68564 | 38217 ft | 486 kts | 195° |
| 2026-05-04 04:55 | 27.78242 | 113.67966 | 38213 ft | 487 kts | 195° |
| 2026-05-04 04:55 | 27.71482 | 113.67363 | 38214 ft | 488 kts | 195° |